Time;durP1;ratioP1;P1;durP2;ratioP2;P2;SDS_P1;SDS_P2;PMS_P1;PMS_P2;Temp;Humidity;BMP_temperature;BMP_pressure;BME280_temperature;BME280_humidity;BME280_pressure;Samples;Min_cycle;Max_cycle;Signal;HPM_P1;HPM_P2
2023/04/02 00:01:25;;;;;;;15.00;6.78;;;7.40;99.90;;;;;;5038527;28;20498;-87
2023/04/02 00:03:58;;;;;;;11.52;6.18;;;7.40;99.90;;;;;;5035211;28;20044;-84
2023/04/02 00:06:29;;;;;;;15.32;6.63;;;7.40;99.90;;;;;;5044557;28;20068;-84
2023/04/02 00:08:57;;;;;;;14.50;6.20;;;7.50;99.90;;;;;;5033076;28;20123;-85
2023/04/02 00:11:36;;;;;;;12.18;6.00;;;7.40;99.90;;;;;;5038969;28;20028;-85
2023/04/02 00:14:03;;;;;;;10.90;6.55;;;7.40;99.90;;;;;;5033366;28;20064;-86
2023/04/02 00:16:30;;;;;;;12.73;6.65;;;7.40;99.90;;;;;;5042898;28;20022;-85
2023/04/02 00:19:01;;;;;;;12.63;6.90;;;7.40;99.90;;;;;;5049132;28;20029;-85
2023/04/02 00:21:31;;;;;;;13.32;6.78;;;7.50;99.90;;;;;;5055488;28;20069;-84
2023/04/02 00:23:59;;;;;;;13.82;6.93;;;7.50;99.90;;;;;;5045374;28;20452;-84
2023/04/02 00:26:31;;;;;;;12.00;6.57;;;7.50;99.90;;;;;;5052936;28;20435;-84
2023/04/02 00:29:01;;;;;;;11.95;6.65;;;7.40;99.90;;;;;;5047440;28;20021;-84
2023/04/02 00:31:27;;;;;;;9.00;5.82;;;7.40;99.90;;;;;;5046213;28;20444;-85
2023/04/02 00:33:54;;;;;;;9.30;5.78;;;7.40;99.90;;;;;;5053907;28;20059;-85
2023/04/02 00:36:23;;;;;;;11.05;5.50;;;7.30;99.90;;;;;;5054053;28;20029;-85
2023/04/02 00:38:49;;;;;;;14.93;6.57;;;7.30;99.90;;;;;;5050749;28;20377;-84
2023/04/02 00:41:34;;;;;;;11.63;6.05;;;7.30;99.90;;;;;;5035490;28;20037;-85
2023/04/02 00:44:01;;;;;;;15.23;7.00;;;7.30;99.90;;;;;;5036131;28;20033;-84
2023/04/02 00:46:45;;;;;;;13.77;6.70;;;7.30;99.90;;;;;;5044608;28;20025;-84
2023/04/02 00:49:20;;;;;;;13.48;6.45;;;7.30;99.90;;;;;;5053700;28;20045;-83
2023/04/02 00:51:55;;;;;;;11.20;5.90;;;7.30;99.90;;;;;;5038230;28;20048;-83
2023/04/02 00:54:24;;;;;;;16.63;5.85;;;7.30;99.90;;;;;;5037731;28;20102;-84
2023/04/02 00:56:54;;;;;;;13.32;6.38;;;7.20;99.90;;;;;;5053942;28;20021;-83
2023/04/02 00:59:30;;;;;;;15.48;6.85;;;7.10;99.90;;;;;;5052285;28;20467;-84
2023/04/02 01:02:03;;;;;;;15.45;6.97;;;7.10;99.90;;;;;;5037818;28;20111;-83
2023/04/02 01:04:33;;;;;;;13.25;7.28;;;7.10;99.90;;;;;;5054875;28;20037;-83
2023/04/02 01:07:09;;;;;;;13.10;7.15;;;7.20;99.90;;;;;;5034183;28;20044;-83
2023/04/02 01:10:26;;;;;;;13.27;6.53;;;7.10;99.90;;;;;;5049337;28;20104;-83
2023/04/02 01:13:13;;;;;;;14.73;6.30;;;7.10;99.90;;;;;;5035572;28;20038;-84
2023/04/02 01:16:04;;;;;;;14.32;6.75;;;7.00;99.90;;;;;;5043699;28;20030;-84
2023/04/02 01:18:49;;;;;;;12.05;6.32;;;7.00;99.90;;;;;;5026168;28;20383;-83
2023/04/02 01:21:31;;;;;;;13.80;6.43;;;7.00;99.90;;;;;;5037298;28;20406;-83
2023/04/02 01:24:00;;;;;;;9.43;5.93;;;7.00;99.90;;;;;;5074739;28;20057;-83
2023/04/02 01:26:52;;;;;;;11.27;6.40;;;6.90;99.90;;;;;;5066161;28;20060;-83
2023/04/02 01:29:22;;;;;;;15.65;6.47;;;6.90;99.90;;;;;;5060198;28;20060;-84
2023/04/02 01:31:49;;;;;;;17.20;7.25;;;6.90;99.90;;;;;;5062491;28;20028;-84
2023/04/02 01:34:20;;;;;;;12.27;6.05;;;6.90;99.90;;;;;;5059349;28;20013;-83
2023/04/02 01:36:55;;;;;;;11.18;6.10;;;6.90;99.90;;;;;;5069046;28;20036;-85
2023/04/02 01:39:41;;;;;;;10.95;5.32;;;6.90;99.90;;;;;;5059973;28;20064;-84
2023/04/02 01:42:20;;;;;;;20.10;6.03;;;6.90;99.90;;;;;;5059558;28;20030;-84
2023/04/02 01:44:49;;;;;;;12.88;5.57;;;6.90;99.90;;;;;;5063937;28;20112;-85
2023/04/02 01:47:18;;;;;;;9.57;5.30;;;6.90;99.90;;;;;;5079541;28;20032;-85
2023/04/02 01:49:45;;;;;;;7.03;5.28;;;6.90;99.90;;;;;;5077038;28;20037;-84
2023/04/02 01:52:25;;;;;;;18.75;5.18;;;6.90;99.90;;;;;;5059847;28;20018;-83
2023/04/02 01:54:52;;;;;;;10.32;5.53;;;6.80;99.90;;;;;;5059134;28;20049;-85
2023/04/02 01:57:18;;;;;;;13.77;5.30;;;6.80;99.90;;;;;;5061668;28;20014;-85
2023/04/02 01:59:45;;;;;;;11.07;4.55;;;6.80;99.90;;;;;;5059670;28;20029;-84
2023/04/02 02:02:13;;;;;;;10.95;6.28;;;6.80;99.90;;;;;;5077357;28;20021;-85
2023/04/02 02:04:39;;;;;;;8.70;5.03;;;6.80;99.90;;;;;;5073427;28;20017;-85
2023/04/02 02:07:13;;;;;;;13.55;5.90;;;6.80;99.90;;;;;;5078585;28;20028;-84
2023/04/02 02:09:39;;;;;;;12.27;5.53;;;6.80;99.90;;;;;;5064860;28;20032;-84
2023/04/02 02:12:05;;;;;;;8.15;5.15;;;6.90;99.90;;;;;;5059329;28;20017;-84
2023/04/02 02:14:32;;;;;;;8.48;5.68;;;6.90;99.90;;;;;;5062923;28;20015;-84
2023/04/02 02:17:01;;;;;;;10.68;4.90;;;6.80;99.90;;;;;;5078545;28;20032;-85
2023/04/02 02:19:46;;;;;;;13.25;5.72;;;6.70;99.90;;;;;;5079373;28;20017;-84
2023/04/02 02:22:16;;;;;;;10.07;5.35;;;6.60;99.90;;;;;;5060742;28;20087;-84
2023/04/02 02:24:43;;;;;;;12.93;5.72;;;6.50;99.90;;;;;;5068913;28;20093;-84
2023/04/02 02:27:26;;;;;;;8.27;4.97;;;6.60;99.90;;;;;;5079664;28;20043;-83
2023/04/02 02:29:58;;;;;;;11.77;4.97;;;6.60;99.90;;;;;;5064871;28;20053;-84
2023/04/02 02:32:28;;;;;;;14.30;5.78;;;6.60;99.90;;;;;;5077594;28;20044;-84
2023/04/02 02:35:10;;;;;;;23.42;6.18;;;6.60;99.90;;;;;;5063518;28;20061;-85
2023/04/02 02:37:42;;;;;;;17.00;5.70;;;6.60;99.90;;;;;;5040502;28;20160;-84
2023/04/02 02:40:16;;;;;;;9.80;4.60;;;6.70;99.90;;;;;;5040902;28;20200;-84
2023/04/02 02:42:50;;;;;;;14.07;6.60;;;6.60;99.90;;;;;;5056303;28;20599;-84
2023/04/02 02:45:21;;;;;;;9.90;4.80;;;6.50;99.90;;;;;;5036204;28;20021;-86
2023/04/02 02:47:48;;;;;;;10.57;5.38;;;6.50;99.90;;;;;;5035077;28;20364;-84
2023/04/02 02:50:21;;;;;;;8.15;4.47;;;6.30;99.90;;;;;;5034587;28;20512;-84
2023/04/02 02:53:02;;;;;;;11.90;4.20;;;6.30;99.90;;;;;;5051615;28;20021;-83
2023/04/02 02:55:32;;;;;;;8.18;4.63;;;6.20;99.90;;;;;;5052822;28;20039;-84
2023/04/02 02:58:06;;;;;;;8.70;4.43;;;6.30;99.90;;;;;;5053956;28;20078;-83
2023/04/02 03:00:34;;;;;;;8.27;4.68;;;6.30;99.90;;;;;;5050900;28;20029;-84
2023/04/02 03:03:05;;;;;;;11.90;5.18;;;6.20;99.90;;;;;;5049679;28;20397;-83
2023/04/02 03:05:31;;;;;;;11.25;4.03;;;6.20;99.90;;;;;;5032458;28;20108;-85
2023/04/02 03:07:58;;;;;;;8.82;4.28;;;6.20;99.90;;;;;;5034176;28;20032;-85
2023/04/02 03:10:31;;;;;;;6.05;4.10;;;6.20;99.90;;;;;;5032095;28;20033;-83
2023/04/02 03:13:31;;;;;;;11.60;5.30;;;6.20;99.90;;;;;;5033530;28;20034;-85
2023/04/02 03:16:21;;;;;;;9.48;4.88;;;6.20;99.90;;;;;;5035016;28;20075;-84
2023/04/02 03:18:58;;;;;;;8.70;3.83;;;6.10;99.90;;;;;;5050478;28;20063;-83
2023/04/02 03:21:49;;;;;;;15.35;4.63;;;6.10;99.90;;;;;;5041642;28;20025;-84
2023/04/02 03:24:33;;;;;;;14.65;5.20;;;6.00;99.90;;;;;;5032042;28;20469;-85
2023/04/02 03:27:21;;;;;;;9.40;4.70;;;6.10;99.90;;;;;;5033353;28;20037;-85
2023/04/02 03:30:24;;;;;;;8.85;5.13;;;6.10;99.90;;;;;;5033555;28;20581;-84
2023/04/02 03:32:53;;;;;;;7.57;4.57;;;6.10;99.90;;;;;;5052465;28;20032;-84
2023/04/02 03:35:42;;;;;;;7.38;4.55;;;6.10;99.90;;;;;;5047449;28;20556;-84
2023/04/02 03:38:21;;;;;;;10.13;4.57;;;6.00;99.90;;;;;;5031869;28;20167;-84
2023/04/02 03:41:08;;;;;;;8.30;4.72;;;6.00;99.90;;;;;;5050991;28;20020;-84
2023/04/02 03:43:45;;;;;;;6.73;4.00;;;6.00;99.90;;;;;;5051961;28;20086;-82
2023/04/02 03:46:18;;;;;;;10.82;4.85;;;5.90;99.90;;;;;;5050423;28;20025;-84
2023/04/02 03:49:08;;;;;;;9.07;4.97;;;5.90;99.90;;;;;;5051790;28;20072;-85
2023/04/02 03:52:10;;;;;;;12.02;4.88;;;5.90;99.90;;;;;;5051909;28;20029;-85
2023/04/02 03:54:37;;;;;;;10.63;4.45;;;5.90;99.90;;;;;;5048059;28;20017;-83
2023/04/02 03:57:04;;;;;;;8.90;5.00;;;5.90;99.90;;;;;;5046898;28;20037;-86
2023/04/02 03:59:36;;;;;;;7.72;4.72;;;5.90;99.90;;;;;;5056109;28;20099;-85
2023/04/02 04:02:24;;;;;;;6.75;4.80;;;5.90;99.90;;;;;;5047493;28;20033;-85
2023/04/02 04:04:52;;;;;;;7.72;4.90;;;5.90;99.90;;;;;;5042204;28;20037;-85
2023/04/02 04:07:32;;;;;;;12.38;4.20;;;5.90;99.90;;;;;;5055635;28;20411;-85
2023/04/02 04:10:01;;;;;;;13.48;4.85;;;5.90;99.90;;;;;;5053736;28;20386;-84
2023/04/02 04:12:42;;;;;;;6.57;4.20;;;5.90;99.90;;;;;;5057113;28;20032;-84
2023/04/02 04:15:34;;;;;;;5.90;4.20;;;5.90;99.90;;;;;;5054975;28;20385;-85
2023/04/02 04:18:23;;;;;;;7.50;5.10;;;5.80;99.90;;;;;;5040340;28;20033;-84
2023/04/02 04:20:57;;;;;;;9.95;4.65;;;5.70;99.90;;;;;;5038252;28;20038;-84
2023/04/02 04:23:29;;;;;;;6.03;4.65;;;5.70;99.90;;;;;;5055599;28;20033;-83
2023/04/02 04:26:08;;;;;;;8.25;4.03;;;5.70;99.90;;;;;;5052858;28;20090;-83
2023/04/02 04:32:33;;;;;;;7.22;4.57;;;5.60;99.90;;;;;;5043622;28;20036;-84
2023/04/02 04:35:15;;;;;;;6.22;3.95;;;5.60;99.90;;;;;;5031815;28;20040;-84
2023/04/02 04:37:43;;;;;;;8.80;4.45;;;5.60;99.90;;;;;;5045563;28;20029;-84
2023/04/02 04:40:28;;;;;;;6.38;3.40;;;5.60;99.90;;;;;;5043085;28;20092;-83
2023/04/02 04:42:58;;;;;;;7.53;4.13;;;5.60;99.90;;;;;;5035107;28;20538;-83
2023/04/02 04:45:45;;;;;;;6.60;4.57;;;5.50;99.90;;;;;;5046789;28;20025;-83
2023/04/02 04:48:17;;;;;;;5.68;3.75;;;5.40;99.90;;;;;;5054023;28;20124;-83
2023/04/02 04:50:49;;;;;;;6.05;3.72;;;5.40;99.90;;;;;;5041727;28;20045;-83
2023/04/02 04:53:21;;;;;;;5.45;3.40;;;5.40;99.90;;;;;;5049690;28;20032;-83
2023/04/02 04:55:50;;;;;;;5.20;4.13;;;5.40;99.90;;;;;;5045061;28;20053;-83
2023/04/02 04:58:30;;;;;;;6.97;4.50;;;5.50;99.90;;;;;;5035233;28;20103;-83
2023/04/02 05:01:04;;;;;;;6.95;4.03;;;5.40;99.90;;;;;;5035074;28;20537;-82
2023/04/02 05:03:33;;;;;;;8.63;4.25;;;5.30;99.90;;;;;;5048797;28;20017;-84
2023/04/02 05:06:25;;;;;;;6.40;3.90;;;5.20;99.90;;;;;;5054585;28;20029;-84
2023/04/02 05:08:56;;;;;;;5.55;3.88;;;5.30;99.90;;;;;;5046526;28;20514;-85
2023/04/02 05:11:37;;;;;;;12.05;4.30;;;5.20;99.90;;;;;;5051827;28;20021;-84
2023/04/02 05:14:11;;;;;;;4.18;3.28;;;5.20;99.90;;;;;;5054202;28;20033;-84
2023/04/02 05:16:51;;;;;;;14.95;3.78;;;5.20;99.90;;;;;;5053905;28;20056;-83
2023/04/02 05:20:08;;;;;;;5.22;2.97;;;5.10;99.90;;;;;;5037795;28;20498;-85
2023/04/02 05:22:47;;;;;;;7.57;3.05;;;4.90;99.90;;;;;;5033441;28;20030;-83
2023/04/02 05:25:26;;;;;;;7.72;3.72;;;4.90;99.90;;;;;;5045451;28;20065;-83
2023/04/02 05:28:10;;;;;;;7.22;3.85;;;4.90;99.90;;;;;;5045174;28;20025;-83
2023/04/02 05:31:00;;;;;;;5.00;3.38;;;4.80;99.90;;;;;;5035630;28;20430;-84
2023/04/02 05:33:34;;;;;;;8.63;3.85;;;4.80;99.90;;;;;;5034471;28;20021;-85
2023/04/02 05:36:06;;;;;;;11.13;3.47;;;4.80;99.90;;;;;;5053420;28;20083;-84
2023/04/02 05:38:37;;;;;;;5.47;3.03;;;4.80;99.90;;;;;;5040737;28;20494;-83
2023/04/02 05:41:21;;;;;;;2.78;2.42;;;4.80;99.90;;;;;;5051335;28;20501;-83
2023/04/02 05:43:50;;;;;;;3.83;2.42;;;4.80;99.90;;;;;;5052925;28;20140;-82
2023/04/02 05:46:26;;;;;;;;;;;4.80;99.90;;;;;;5050569;28;20482;-84
2023/04/02 05:48:57;;;;;;;8.70;2.70;;;4.80;99.90;;;;;;5051747;28;19912;-83
2023/04/02 05:51:42;;;;;;;4.88;2.60;;;4.70;99.90;;;;;;5055276;28;20045;-83
2023/04/02 05:54:23;;;;;;;6.45;2.83;;;4.60;99.90;;;;;;5053694;28;20091;-83
2023/04/02 05:56:59;;;;;;;6.38;3.47;;;4.50;99.90;;;;;;5051757;28;20057;-84
2023/04/02 05:59:33;;;;;;;8.85;2.65;;;4.40;99.90;;;;;;5042090;28;20033;-85
2023/04/02 06:02:23;;;;;;;5.25;2.97;;;4.50;99.90;;;;;;5035883;28;20064;-84
2023/04/02 06:05:00;;;;;;;5.22;1.83;;;4.50;99.90;;;;;;5051213;28;20051;-84
2023/04/02 06:07:28;;;;;;;7.70;2.25;;;4.50;99.90;;;;;;5043082;28;20108;-84
2023/04/02 06:10:09;;;;;;;5.47;2.92;;;4.60;99.90;;;;;;5035532;28;20052;-85
2023/04/02 06:12:51;;;;;;;2.38;1.83;;;4.50;99.90;;;;;;5053386;28;20090;-84
2023/04/02 06:15:22;;;;;;;5.93;2.53;;;4.50;99.90;;;;;;5039253;28;20041;-82
2023/04/02 06:17:58;;;;;;;6.30;1.90;;;4.60;99.90;;;;;;5040057;28;20563;-84
2023/04/02 06:20:24;;;;;;;12.07;2.17;;;4.60;99.90;;;;;;5054625;28;20045;-84
2023/04/02 06:23:14;;;;;;;4.15;2.45;;;4.60;99.90;;;;;;5054004;28;20033;-83
2023/04/02 06:26:12;;;;;;;6.50;2.40;;;4.60;99.90;;;;;;5050083;28;20497;-84
2023/04/02 06:28:50;;;;;;;1.98;1.58;;;4.60;99.90;;;;;;5027171;28;20486;-85
2023/04/02 06:31:35;;;;;;;;;;;4.50;99.90;;;;;;5035174;28;20030;-85
2023/04/02 06:34:02;;;;;;;3.22;1.77;;;4.50;99.90;;;;;;5047926;28;19963;-86
2023/04/02 06:36:28;;;;;;;3.42;1.80;;;4.40;99.90;;;;;;5052933;28;20115;-85
2023/04/02 06:39:06;;;;;;;5.07;2.63;;;4.50;99.90;;;;;;5052965;28;20032;-85
2023/04/02 06:41:32;;;;;;;4.70;1.83;;;4.50;99.90;;;;;;5052333;28;20031;-84
2023/04/02 06:44:10;;;;;;;4.88;2.38;;;4.50;99.90;;;;;;5052660;28;20398;-84
2023/04/02 06:46:45;;;;;;;5.05;2.42;;;4.50;99.90;;;;;;5050897;28;20033;-85
2023/04/02 06:49:19;;;;;;;5.43;2.63;;;4.40;99.90;;;;;;5040745;28;20088;-86
2023/04/02 06:51:47;;;;;;;3.58;2.20;;;4.50;99.90;;;;;;5050881;28;20513;-85
2023/04/02 06:54:15;;;;;;;6.10;2.55;;;4.50;99.90;;;;;;5035192;28;20033;-85
2023/04/02 06:57:03;;;;;;;6.82;2.42;;;4.40;99.90;;;;;;5049684;28;20420;-85
2023/04/02 06:59:29;;;;;;;4.40;2.38;;;4.40;99.90;;;;;;5043587;28;20154;-85
2023/04/02 07:02:06;;;;;;;7.53;2.50;;;4.40;99.90;;;;;;5052982;28;20132;-83
2023/04/02 07:04:35;;;;;;;4.70;3.28;;;4.30;99.90;;;;;;5036256;28;20366;-84
2023/04/02 07:07:00;;;;;;;6.63;2.90;;;4.30;99.90;;;;;;5032968;28;20179;-84
2023/04/02 07:09:26;;;;;;;8.75;3.03;;;4.20;99.90;;;;;;5040942;28;20079;-84
2023/04/02 07:11:52;;;;;;;14.88;3.33;;;4.10;99.90;;;;;;5038821;28;20437;-83
2023/04/02 07:14:17;;;;;;;9.00;2.90;;;4.10;99.90;;;;;;5032319;28;20083;-83
2023/04/02 07:16:43;;;;;;;3.58;2.85;;;4.20;99.90;;;;;;5045218;28;20029;-83
2023/04/02 07:19:20;;;;;;;3.70;2.72;;;4.20;99.90;;;;;;5051758;28;20028;-83
2023/04/02 07:21:45;;;;;;;12.63;2.85;;;4.10;99.90;;;;;;5046428;28;20032;-82
2023/04/02 07:24:11;;;;;;;3.22;2.92;;;4.00;99.90;;;;;;5053203;28;20033;-83
2023/04/02 07:26:37;;;;;;;5.13;3.85;;;4.00;99.90;;;;;;5051718;28;20036;-84
2023/04/02 07:29:07;;;;;;;11.88;2.72;;;4.10;99.90;;;;;;5048769;28;20041;-83
2023/04/02 07:31:33;;;;;;;4.72;2.55;;;4.10;99.90;;;;;;5039658;28;20027;-83
2023/04/02 07:33:59;;;;;;;5.93;2.55;;;4.10;99.90;;;;;;5045598;28;20096;-84
2023/04/02 07:36:27;;;;;;;7.57;2.70;;;4.20;99.90;;;;;;5051079;28;20029;-84
2023/04/02 07:38:54;;;;;;;;;;;4.20;99.90;;;;;;5053874;28;20025;-84
2023/04/02 07:41:20;;;;;;;4.90;2.70;;;4.20;99.90;;;;;;5050227;28;20002;-84
2023/04/02 07:43:47;;;;;;;3.28;2.92;;;4.20;99.90;;;;;;5046980;28;20040;-84
2023/04/02 07:46:15;;;;;;;4.72;2.80;;;4.20;99.90;;;;;;5051925;28;20028;-84
2023/04/02 07:48:41;;;;;;;3.45;2.53;;;4.20;99.90;;;;;;5034383;28;20021;-83
2023/04/02 07:51:33;;;;;;;5.63;2.70;;;4.30;99.90;;;;;;5033598;28;20057;-83
2023/04/02 07:54:00;;;;;;;3.47;2.60;;;4.50;99.90;;;;;;5034774;28;20033;-79
2023/04/02 07:56:27;;;;;;;6.53;2.40;;;4.50;99.90;;;;;;5037536;28;20105;-85
2023/04/02 07:58:53;;;;;;;2.33;2.10;;;4.50;99.90;;;;;;5040234;28;20017;-86
2023/04/02 08:01:22;;;;;;;11.80;3.38;;;4.60;99.90;;;;;;5042111;28;20371;-80
2023/04/02 08:03:50;;;;;;;2.03;1.90;;;4.60;99.90;;;;;;5045791;28;20071;-81
2023/04/02 08:06:16;;;;;;;3.22;1.95;;;4.60;99.90;;;;;;5043784;28;20209;-80
2023/04/02 08:08:42;;;;;;;2.67;1.67;;;4.50;99.90;;;;;;5038690;28;20583;-81
2023/04/02 08:11:09;;;;;;;1.98;1.58;;;4.50;99.90;;;;;;5041155;28;20215;-80
2023/04/02 08:13:35;;;;;;;2.58;1.90;;;4.60;99.90;;;;;;5038239;28;20030;-80
2023/04/02 08:16:01;;;;;;;5.88;1.50;;;4.60;99.90;;;;;;5048854;28;20060;-80
2023/04/02 08:18:28;;;;;;;3.00;1.90;;;4.70;99.90;;;;;;5061021;28;20013;-80
2023/04/02 08:20:55;;;;;;;5.85;2.10;;;4.70;99.90;;;;;;5054606;28;20024;-81
2023/04/02 08:23:21;;;;;;;2.40;1.77;;;4.70;99.90;;;;;;5068968;28;20043;-79
2023/04/02 08:25:47;;;;;;;4.78;2.00;;;4.80;99.90;;;;;;5074603;28;20057;-81
2023/04/02 08:28:13;;;;;;;2.85;1.90;;;4.70;99.90;;;;;;5056963;28;20049;-79
2023/04/02 08:30:40;;;;;;;3.08;1.63;;;4.70;99.90;;;;;;5058393;28;20033;-81
2023/04/02 08:33:06;;;;;;;4.80;2.00;;;4.70;99.90;;;;;;5057779;28;20012;-80
2023/04/02 08:35:32;;;;;;;3.63;2.15;;;4.70;99.90;;;;;;5057778;28;20048;-81
2023/04/02 08:37:58;;;;;;;4.35;1.90;;;4.80;99.90;;;;;;5060509;28;20025;-81
2023/04/02 08:40:46;;;;;;;2.15;1.63;;;5.00;99.90;;;;;;5063611;28;20052;-80
2023/04/02 08:43:37;;;;;;;1.70;1.60;;;5.10;99.90;;;;;;5060173;28;20038;-81
2023/04/02 08:46:21;;;;;;;4.63;2.00;;;5.20;99.90;;;;;;5071140;28;20474;-79
2023/04/02 08:48:54;;;;;;;3.15;2.25;;;5.20;99.90;;;;;;5057666;28;20033;-79
2023/04/02 08:51:32;;;;;;;1.98;1.60;;;5.10;99.90;;;;;;5078231;28;20049;-79
2023/04/02 08:54:05;;;;;;;6.50;2.30;;;5.20;99.90;;;;;;5071868;28;20085;-78
2023/04/02 08:56:48;;;;;;;2.70;1.60;;;5.30;99.90;;;;;;5060031;28;20033;-78
2023/04/02 08:59:27;;;;;;;4.20;2.13;;;5.40;99.90;;;;;;5059766;28;20022;-78
2023/04/02 09:02:30;;;;;;;2.75;2.22;;;5.40;99.90;;;;;;5065150;28;20105;-79
2023/04/02 09:05:02;;;;;;;7.55;2.70;;;5.50;99.90;;;;;;5083163;28;20006;-80
2023/04/02 09:07:28;;;;;;;4.10;2.40;;;5.70;99.90;;;;;;5058405;28;20033;-78
2023/04/02 09:09:55;;;;;;;3.13;2.50;;;5.60;99.90;;;;;;5060635;28;20029;-78
2023/04/02 09:12:31;;;;;;;3.25;2.40;;;5.60;99.90;;;;;;5060376;28;20013;-79
2023/04/02 09:15:24;;;;;;;3.85;2.60;;;5.40;99.90;;;;;;5060670;28;20021;-80
2023/04/02 09:17:59;;;;;;;8.43;2.17;;;5.30;99.90;;;;;;5079619;28;20017;-78
2023/04/02 09:20:26;;;;;;;6.07;3.00;;;5.20;99.90;;;;;;5075911;28;20040;-78
2023/04/02 09:22:53;;;;;;;9.18;3.30;;;5.30;99.90;;;;;;5061062;28;20033;-79
2023/04/02 09:25:31;;;;;;;4.43;3.22;;;5.30;99.90;;;;;;5074233;28;20052;-79
2023/04/02 09:28:00;;;;;;;3.63;2.63;;;5.20;99.90;;;;;;5079420;28;20027;-78
2023/04/02 09:30:39;;;;;;;3.67;2.30;;;5.30;99.90;;;;;;5062484;28;20041;-80
2023/04/02 09:33:06;;;;;;;2.92;2.50;;;5.40;99.90;;;;;;5060294;28;20010;-80
2023/04/02 09:35:55;;;;;;;9.75;3.58;;;5.60;99.90;;;;;;5060252;28;20068;-78
2023/04/02 09:38:23;;;;;;;4.55;3.45;;;5.70;99.90;;;;;;5058443;28;20021;-79
2023/04/02 09:41:19;;;;;;;8.18;2.75;;;5.90;99.90;;;;;;5059580;28;20028;-77
2023/04/02 09:43:45;;;;;;;6.57;2.80;;;6.00;99.90;;;;;;5076906;28;20051;-79
2023/04/02 09:46:25;;;;;;;3.83;2.22;;;6.30;99.90;;;;;;5078180;28;20017;-78
2023/04/02 09:48:56;;;;;;;3.13;1.92;;;6.50;99.90;;;;;;5049987;28;20021;-80
2023/04/02 09:51:32;;;;;;;2.88;1.67;;;6.50;99.90;;;;;;5054165;28;20117;-80
2023/04/02 09:54:01;;;;;;;2.30;1.65;;;6.60;99.90;;;;;;5033811;28;20076;-80
2023/04/02 09:56:27;;;;;;;;;;;6.50;99.90;;;;;;5019552;28;20144;-80
2023/04/02 09:59:05;;;;;;;2.15;1.42;;;6.80;99.90;;;;;;5023797;28;19909;-80
2023/04/02 10:01:37;;;;;;;1.95;1.67;;;7.10;99.90;;;;;;5012658;28;20045;-80
2023/04/02 10:04:05;;;;;;;6.95;2.58;;;7.10;99.90;;;;;;5012859;28;20044;-80
2023/04/02 10:06:33;;;;;;;3.20;2.63;;;7.10;99.90;;;;;;5012445;28;20083;-79
2023/04/02 10:09:18;;;;;;;8.00;2.55;;;7.20;99.90;;;;;;5012121;28;20471;-79
2023/04/02 10:11:45;;;;;;;1.48;1.38;;;7.20;99.90;;;;;;5015143;28;20097;-80
2023/04/02 10:14:27;;;;;;;5.97;1.55;;;7.20;99.90;;;;;;5018624;28;20039;-80
2023/04/02 10:16:59;;;;;;;3.10;1.45;;;7.10;99.90;;;;;;5015330;28;20076;-81
2023/04/02 10:19:39;;;;;;;4.22;1.55;;;7.10;99.90;;;;;;5012854;28;20038;-82
2023/04/02 10:22:14;;;;;;;1.95;1.40;;;7.20;99.90;;;;;;5023257;28;20037;-80
2023/04/02 10:24:40;;;;;;;2.90;1.00;;;7.30;99.90;;;;;;5032985;28;20060;-81
2023/04/02 10:27:25;;;;;;;6.68;1.38;;;7.40;99.90;;;;;;5042153;28;20045;-81
2023/04/02 10:30:02;;;;;;;3.42;1.40;;;7.50;99.90;;;;;;5042496;28;20037;-81
2023/04/02 10:32:54;;;;;;;2.83;1.55;;;7.60;99.90;;;;;;5035482;28;20029;-81
2023/04/02 10:36:01;;;;;;;4.95;1.30;;;7.70;99.90;;;;;;5034000;28;20039;-80
2023/04/02 10:38:42;;;;;;;2.05;1.20;;;7.70;99.90;;;;;;5036965;28;20036;-80
2023/04/02 10:41:33;;;;;;;5.72;1.98;;;7.80;99.90;;;;;;5033045;28;20049;-81
2023/04/02 10:44:36;;;;;;;5.03;1.35;;;7.80;99.90;;;;;;5045910;28;20079;-81
2023/04/02 10:47:04;;;;;;;4.45;2.00;;;8.10;99.90;;;;;;5036398;28;20052;-81
2023/04/02 10:49:54;;;;;;;5.72;1.30;;;8.10;99.90;;;;;;5046691;28;20061;-81
2023/04/02 10:52:25;;;;;;;8.23;1.58;;;8.00;99.90;;;;;;5033768;28;20037;-80
2023/04/02 10:54:54;;;;;;;4.43;1.80;;;8.00;99.90;;;;;;5033136;28;20086;-81
2023/04/02 10:57:42;;;;;;;4.20;1.33;;;8.10;99.90;;;;;;5032884;28;20036;-82
2023/04/02 11:00:11;;;;;;;3.30;1.58;;;8.30;99.90;;;;;;5042530;28;20026;-82
2023/04/02 11:02:52;;;;;;;5.20;1.88;;;8.30;99.90;;;;;;5038410;28;20355;-81
2023/04/02 11:05:44;;;;;;;8.73;1.70;;;8.50;99.90;;;;;;5033793;28;20366;-82
2023/04/02 11:08:25;;;;;;;13.80;1.50;;;8.60;99.90;;;;;;5041280;28;20389;-82
2023/04/02 11:11:01;;;;;;;5.70;1.90;;;8.70;99.90;;;;;;5054307;28;20405;-82
2023/04/02 11:13:48;;;;;;;1.40;1.30;;;8.60;99.90;;;;;;5054149;28;20478;-81
2023/04/02 11:16:14;;;;;;;5.27;1.80;;;8.50;99.90;;;;;;5052816;28;20037;-82
2023/04/02 11:18:40;;;;;;;1.88;1.27;;;8.70;99.90;;;;;;5035738;28;20073;-81
2023/04/02 11:21:06;;;;;;;2.38;1.63;;;8.80;99.90;;;;;;5044613;28;20028;-82
2023/04/02 11:23:54;;;;;;;3.13;1.50;;;8.90;99.90;;;;;;5052824;28;20037;-81
2023/04/02 11:26:29;;;;;;;1.70;1.60;;;8.90;99.90;;;;;;5043163;28;20408;-81
2023/04/02 11:29:14;;;;;;;1.45;1.35;;;9.00;99.90;;;;;;5048202;28;20122;-80
2023/04/02 11:31:42;;;;;;;1.98;1.38;;;9.10;99.90;;;;;;5053573;28;20029;-81
2023/04/02 11:34:40;;;;;;;3.33;1.30;;;9.10;99.90;;;;;;5049353;28;20414;-82
2023/04/02 11:37:28;;;;;;;6.22;1.67;;;9.10;99.90;;;;;;5021119;28;20048;-82
2023/04/02 11:39:58;;;;;;;4.78;1.67;;;9.20;99.90;;;;;;5051573;28;20025;-83
2023/04/02 11:42:34;;;;;;;1.50;1.23;;;9.30;99.90;;;;;;5054022;28;20025;-83
2023/04/02 11:45:22;;;;;;;2.30;1.40;;;9.30;99.90;;;;;;5036015;28;20083;-83
2023/04/02 11:48:00;;;;;;;5.43;1.30;;;9.40;99.90;;;;;;5033183;28;20509;-82
2023/04/02 11:50:36;;;;;;;9.38;1.90;;;9.50;99.90;;;;;;5032182;28;20527;-82
2023/04/02 11:53:31;;;;;;;5.07;1.77;;;9.50;99.90;;;;;;5046495;28;20029;-82
2023/04/02 11:56:07;;;;;;;2.67;0.90;;;9.40;99.90;;;;;;5034462;28;20034;-82
2023/04/02 11:58:52;;;;;;;4.25;2.42;;;9.50;99.90;;;;;;5037690;28;20021;-82
2023/04/02 12:01:21;;;;;;;1.63;1.27;;;9.60;99.90;;;;;;5051907;28;20573;-83
2023/04/02 12:04:00;;;;;;;3.25;1.30;;;9.70;99.90;;;;;;5032568;28;20041;-82
2023/04/02 12:07:03;;;;;;;2.42;1.23;;;9.90;99.90;;;;;;5031709;28;20026;-82
2023/04/02 12:09:48;;;;;;;2.55;1.98;;;9.80;99.90;;;;;;5035147;28;20021;-81
2023/04/02 12:12:37;;;;;;;3.15;1.40;;;9.80;99.90;;;;;;5036943;28;20038;-82
2023/04/02 12:15:30;;;;;;;2.28;1.48;;;9.90;99.90;;;;;;5049936;28;20112;-81
2023/04/02 12:18:15;;;;;;;1.05;0.95;;;10.10;99.90;;;;;;5036979;28;20021;-82
2023/04/02 12:20:49;;;;;;;3.60;1.50;;;10.20;99.90;;;;;;5044255;28;20037;-82
2023/04/02 12:23:21;;;;;;;6.53;1.95;;;10.30;99.90;;;;;;5042498;28;20021;-82
2023/04/02 12:25:55;;;;;;;6.05;1.35;;;10.20;99.90;;;;;;5035736;28;20030;-81
2023/04/02 12:28:22;;;;;;;1.95;1.33;;;10.30;99.90;;;;;;5042062;28;20067;-82
2023/04/02 12:30:49;;;;;;;6.07;1.55;;;10.40;99.90;;;;;;5043756;28;20057;-83
2023/04/02 12:33:18;;;;;;;3.38;1.63;;;10.50;99.90;;;;;;5047404;28;20095;-82
2023/04/02 12:35:46;;;;;;;7.10;1.00;;;10.50;99.90;;;;;;5044170;28;20082;-83
2023/04/02 12:38:27;;;;;;;3.78;1.63;;;10.50;99.90;;;;;;5041396;28;20144;-81
2023/04/02 12:40:58;;;;;;;5.05;1.50;;;10.60;99.90;;;;;;5045419;28;20029;-82
2023/04/02 12:43:31;;;;;;;1.70;1.10;;;10.70;99.90;;;;;;5045360;28;20029;-82
2023/04/02 12:46:07;;;;;;;4.82;1.40;;;10.80;99.90;;;;;;5056210;28;20033;-82
2023/04/02 12:48:34;;;;;;;6.63;1.63;;;10.70;99.90;;;;;;5041671;28;20013;-82
2023/04/02 12:51:02;;;;;;;1.90;1.02;;;10.60;99.90;;;;;;5034501;28;20410;-82
2023/04/02 12:53:40;;;;;;;3.13;1.42;;;10.50;99.90;;;;;;5041336;28;20087;-82
2023/04/02 12:56:09;;;;;;;5.30;2.20;;;10.50;99.90;;;;;;5038321;28;20139;-81
2023/04/02 12:58:41;;;;;;;3.33;1.10;;;10.50;99.90;;;;;;5038623;28;20783;-82
2023/04/02 13:01:22;;;;;;;1.80;0.88;;;10.80;99.90;;;;;;5046309;28;20052;-81
2023/04/02 13:04:03;;;;;;;2.42;1.23;;;10.80;99.90;;;;;;5041171;28;20067;-82
2023/04/02 13:06:29;;;;;;;5.22;1.60;;;10.90;99.90;;;;;;5034606;28;20038;-82
2023/04/02 13:08:56;;;;;;;1.90;1.33;;;11.00;99.90;;;;;;5044041;28;20029;-80
2023/04/02 13:11:22;;;;;;;1.67;1.58;;;11.20;99.90;;;;;;5036961;28;20135;-82
2023/04/02 13:13:49;;;;;;;5.20;2.00;;;11.10;99.90;;;;;;5036965;28;20029;-82
2023/04/02 13:16:17;;;;;;;2.30;1.25;;;11.30;99.90;;;;;;5035145;28;20065;-81
2023/04/02 13:18:45;;;;;;;6.95;1.75;;;11.60;99.90;;;;;;5045497;28;20040;-83
2023/04/02 13:21:26;;;;;;;;;;;11.70;99.90;;;;;;5042940;28;20037;-81
2023/04/02 13:24:02;;;;;;;3.15;1.00;;;11.70;99.90;;;;;;5055407;28;19912;-82
2023/04/02 13:26:29;;;;;;;3.97;1.55;;;11.60;99.90;;;;;;5039259;28;20386;-82
2023/04/02 13:29:24;;;;;;;2.00;1.08;;;11.60;99.90;;;;;;5044008;28;20026;-82
2023/04/02 13:31:53;;;;;;;2.83;1.33;;;11.60;99.90;;;;;;4998569;28;20037;-82
2023/04/02 13:34:18;;;;;;;5.70;1.50;;;11.60;99.90;;;;;;5053392;28;20025;-81
2023/04/02 13:36:44;;;;;;;1.63;1.40;;;11.60;99.90;;;;;;5035147;28;20032;-81
2023/04/02 13:39:10;;;;;;;5.68;1.20;;;11.50;99.90;;;;;;5042279;28;20021;-81
2023/04/02 13:41:43;;;;;;;5.47;1.35;;;11.50;99.90;;;;;;5053989;28;20037;-82